Latest Weather Observations for Outer Harbor (Black Pole)

IDS60901

Issued at 6:41 pm CDT Tuesday 6 December 2016 (issued every 10 minutes, with the page automatically refreshed every 10 minutes)

About weather observations | Map of Adelaide area stations | Latest observations for Adelaide area | Other Formats
Station Details ID: 023052 Name: BLACK POLE Lat: -34.73 Lon: 138.47 Height: 6.27 m
Data from the previous 72 hours. | See also: Recent months for locations in South Australia
Date/Time
CDT
Temp
°C
App
Temp
°C
Dew
Point
°C
Rel
Hum
%
Delta-T
°C
Wind Press
QNH
hPa
Press
MSL
hPa
Rain since
9am
mm
Dir  Spd
km/h
Gust
km/h
Spd
kts
Gust
kts
06/06:30pm - - - - - SSW 17 20 9 11 - - -
06/06:00pm - - - - - SW 15 19 8 10 - - -
06/05:30pm - - - - - SSW 15 19 8 10 - - -
06/05:00pm - - - - - SSW 13 15 7 8 - - -
06/04:30pm - - - - - WSW 15 17 8 9 - - -
06/04:00pm - - - - - WSW 13 17 7 9 - - -
06/03:30pm - - - - - SW 15 20 8 11 - - -
06/03:00pm - - - - - SW 13 15 7 8 - - -
06/02:30pm - - - - - SW 17 20 9 11 - - -
06/02:00pm - - - - - SW 20 24 11 13 - - -
06/01:30pm - - - - - SW 19 20 10 11 - - -
06/01:00pm - - - - - WSW 17 20 9 11 - - -
06/12:30pm - - - - - SW 17 20 9 11 - - -
06/12:00pm - - - - - SW 17 22 9 12 - - -
06/11:30am - - - - - SW 15 20 8 11 - - -
06/11:00am - - - - - SW 15 19 8 10 - - -
06/10:30am - - - - - WSW 11 15 6 8 - - -
06/10:00am - - - - - W 7 11 4 6 - - -
06/09:30am - - - - - NW 4 6 2 3 - - -
06/09:00am - - - - - N 6 7 3 4 - - -
06/08:30am - - - - - NNE 7 11 4 6 - - -
06/08:00am - - - - - NNE 9 11 5 6 - - -
06/07:30am - - - - - N 9 9 5 5 - - -
06/07:00am - - - - - N 9 9 5 5 - - -
06/06:30am - - - - - N 4 6 2 3 - - -
06/06:00am - - - - - ENE 4 6 2 3 - - -
06/05:30am - - - - - NE 9 13 5 7 - - -
06/05:00am - - - - - SE 9 13 5 7 - - -
06/04:30am - - - - - SE 9 13 5 7 - - -
06/04:00am - - - - - SSW 11 15 6 8 - - -
06/03:30am - - - - - SW 13 17 7 9 - - -
06/03:00am - - - - - S 4 7 2 4 - - -
06/02:30am - - - - - SE 7 9 4 5 - - -
06/02:00am - - - - - SE 7 9 4 5 - - -
06/01:30am - - - - - SE 9 13 5 7 - - -
06/01:00am - - - - - SE 9 11 5 6 - - -
06/12:30am - - - - - SE 11 13 6 7 - - -
06/12:00am - - - - - SE 11 13 6 7 - - -
 
Date/Time
CDT
Temp
°C
App
Temp
°C
Dew
Point
°C
Rel
Hum
%
Delta-T
°C
Wind Press
QNH
hPa
Press
MSL
hPa
Rain since
9am
mm
Dir  Spd
km/h
Gust
km/h
Spd
kts
Gust
kts
05/11:30pm - - - - - ESE 11 13 6 7 - - -
05/11:00pm - - - - - ESE 9 13 5 7 - - -
05/10:30pm - - - - - SE 9 13 5 7 - - -
05/10:00pm - - - - - SE 11 15 6 8 - - -
05/09:30pm - - - - - ESE 13 17 7 9 - - -
05/09:00pm - - - - - ESE 20 24 11 13 - - -
05/08:30pm - - - - - ESE 20 32 11 17 - - -
05/08:00pm - - - - - S 26 30 14 16 - - -
05/07:30pm - - - - - S 32 37 17 20 - - -
05/07:00pm - - - - - S 35 41 19 22 - - -
05/06:30pm - - - - - SSW 30 35 16 19 - - -
05/06:00pm - - - - - SSW 28 33 15 18 - - -
05/05:30pm - - - - - SSW 28 32 15 17 - - -
05/05:00pm - - - - - SSW 32 37 17 20 - - -
05/04:30pm - - - - - SSW 33 39 18 21 - - -
05/04:00pm - - - - - SSW 35 41 19 22 - - -
05/03:30pm - - - - - SSW 32 37 17 20 - - -
05/03:00pm - - - - - SSW 28 32 15 17 - - -
05/02:30pm - - - - - SSW 24 28 13 15 - - -
05/02:00pm - - - - - SW 22 28 12 15 - - -
05/01:30pm - - - - - SW 20 26 11 14 - - -
05/01:00pm - - - - - SW 22 28 12 15 - - -
05/12:30pm - - - - - SW 22 28 12 15 - - -
05/12:00pm - - - - - SSW 24 32 13 17 - - -
05/11:30am - - - - - SSW 20 26 11 14 - - -
05/11:00am - - - - - SSW 20 24 11 13 - - -
05/10:30am - - - - - SSW 22 26 12 14 - - -
05/10:00am - - - - - S 22 28 12 15 - - -
05/09:30am - - - - - S 17 22 9 12 - - -
05/09:00am - - - - - S 15 24 8 13 - - -
05/08:30am - - - - - SSE 15 20 8 11 - - -
05/08:00am - - - - - SE 15 20 8 11 - - -
05/07:30am - - - - - SSE 22 32 12 17 - - -
05/07:00am - - - - - S 26 32 14 17 - - -
05/06:30am - - - - - SSW 26 33 14 18 - - -
05/06:00am - - - - - SSW 26 33 14 18 - - -
05/05:30am - - - - - SSW 28 35 15 19 - - -
05/05:00am - - - - - SSW 28 35 15 19 - - -
05/04:30am - - - - - SSW 26 32 14 17 - - -
05/04:00am - - - - - SSW 26 33 14 18 - - -
05/03:30am - - - - - SSW 28 32 15 17 - - -
05/03:00am - - - - - SSW 26 30 14 16 - - -
05/02:30am - - - - - SSW 28 33 15 18 - - -
05/02:00am - - - - - SSW 30 35 16 19 - - -
05/01:30am - - - - - SSW 30 35 16 19 - - -
05/01:00am - - - - - SSW 28 33 15 18 - - -
05/12:30am - - - - - SSW 33 39 18 21 - - -
05/12:00am - - - - - SSW 35 43 19 23 - - -
 
Date/Time
CDT
Temp
°C
App
Temp
°C
Dew
Point
°C
Rel
Hum
%
Delta-T
°C
Wind Press
QNH
hPa
Press
MSL
hPa
Rain since
9am
mm
Dir  Spd
km/h
Gust
km/h
Spd
kts
Gust
kts
04/11:30pm - - - - - SSW 39 50 21 27 - - -
04/11:25pm - - - - - SW 39 50 21 27 - - -
04/11:00pm - - - - - SW 46 56 25 30 - - -
04/10:30pm - - - - - WSW 39 52 21 28 - - -
04/10:00pm - - - - - SW 35 46 19 25 - - -
04/09:30pm - - - - - SW 32 43 17 23 - - -
04/09:00pm - - - - - SSW 24 30 13 16 - - -
04/08:56pm - - - - - SW 26 32 14 17 - - -
04/08:30pm - - - - - WSW 41 50 22 27 - - -
04/08:18pm - - - - - W 32 56 17 30 - - -
04/08:16pm - - - - - W 28 44 15 24 - - -
04/08:00pm - - - - - WNW 20 24 11 13 - - -
04/07:30pm - - - - - WNW 26 28 14 15 - - -
04/07:00pm - - - - - NW 30 35 16 19 - - -
04/06:30pm - - - - - NW 19 20 10 11 - - -
04/06:00pm - - - - - NNW 22 26 12 14 - - -
04/05:30pm - - - - - N 24 30 13 16 - - -
04/05:00pm - - - - - N 20 24 11 13 - - -
04/04:30pm - - - - - N 26 30 14 16 - - -
04/04:00pm - - - - - N 22 37 12 20 - - -
04/03:30pm - - - - - NNE 28 35 15 19 - - -
04/03:00pm - - - - - NE 26 32 14 17 - - -
04/02:30pm - - - - - NNE 24 30 13 16 - - -
04/02:00pm - - - - - NNE 20 24 11 13 - - -
04/01:30pm - - - - - NNE 26 32 14 17 - - -
04/01:00pm - - - - - NNE 26 30 14 16 - - -
04/12:30pm - - - - - NNE 20 24 11 13 - - -
04/12:00pm - - - - - NNE 20 24 11 13 - - -
04/11:30am - - - - - N 17 20 9 11 - - -
04/11:00am - - - - - N 20 26 11 14 - - -
04/10:30am - - - - - N 20 24 11 13 - - -
04/10:00am - - - - - N 24 28 13 15 - - -
04/09:30am - - - - - N 24 28 13 15 - - -
04/09:00am - - - - - NNW 30 39 16 21 - - -
04/08:47am - - - - - NNW 48 61 26 33 - - -
04/08:37am - - - - - NNW 61 80 33 43 - - -
04/08:30am - - - - - NNW 63 83 34 45 - - -
04/08:23am - - - - - NNE 24 83 13 45 - - -
04/08:22am - - - - - NNE 17 72 9 39 - - -
04/08:00am - - - - - NNE 17 24 9 13 - - -
04/07:30am - - - - - NNE 22 28 12 15 - - -
04/07:00am - - - - - NNW 24 30 13 16 - - -
04/06:30am - - - - - N 20 24 11 13 - - -
04/06:00am - - - - - NNE 19 22 10 12 - - -
04/05:30am - - - - - NNE 20 24 11 13 - - -
04/05:00am - - - - - NE 17 20 9 11 - - -
04/04:30am - - - - - NE 11 13 6 7 - - -
04/04:00am - - - - - NE 9 11 5 6 - - -
04/03:30am - - - - - NE 11 13 6 7 - - -
04/03:00am - - - - - NE 11 13 6 7 - - -
04/02:30am - - - - - NNE 11 13 6 7 - - -
04/02:00am - - - - - NNW 4 6 2 3 - - -
04/01:30am - - - - - NNE 13 19 7 10 - - -
04/01:00am - - - - - NE 6 11 3 6 - - -
04/12:30am - - - - - SSW 9 9 5 5 - - -
04/12:00am - - - - - S 9 9 5 5 - - -
 
Date/Time
CDT
Temp
°C
App
Temp
°C
Dew
Point
°C
Rel
Hum
%
Delta-T
°C
Wind Press
QNH
hPa
Press
MSL
hPa
Rain since
9am
mm
Dir  Spd
km/h
Gust
km/h
Spd
kts
Gust
kts
03/11:30pm - - - - - SSE 6 6 3 3 - - -
03/11:00pm - - - - - S 9 9 5 5 - - -
03/10:30pm - - - - - SSW 19 22 10 12 - - -
03/10:00pm - - - - - S 15 17 8 9 - - -
03/09:30pm - - - - - S 15 17 8 9 - - -
03/09:00pm - - - - - S 15 19 8 10 - - -
03/08:30pm - - - - - S 17 20 9 11 - - -
03/08:00pm - - - - - SSW 19 22 10 12 - - -
03/07:30pm - - - - - SSW 17 20 9 11 - - -
03/07:00pm - - - - - SSW 20 24 11 13 - - -

Latest Capital City Observations: Canberra | Sydney | Melbourne | Brisbane | Adelaide | Perth | Hobart | Darwin

Other Formats:

Comma delimited format used in spreadsheet applications
http://www.bom.gov.au/fwo/IDS60901/IDS60901.95675.axf

JavaScript Object Notation format (JSON) in row-major order
http://www.bom.gov.au/fwo/IDS60901/IDS60901.95675.json